sensor_id;sensor_type;location;lat;lon;timestamp;pressure;altitude;pressure_sealevel;temperature;humidity
3844;BME280;1937;51.444;6.484;2023-04-02T00:02:24;68425.31;;;6.63;100.00
3844;BME280;1937;51.444;6.484;2023-04-02T00:08:01;68469.22;;;6.72;100.00
3844;BME280;1937;51.444;6.484;2023-04-02T00:10:30;68421.38;;;6.57;100.00
3844;BME280;1937;51.444;6.484;2023-04-02T00:13:03;68366.47;;;6.56;100.00
3844;BME280;1937;51.444;6.484;2023-04-02T00:15:31;68345.22;;;6.44;100.00
3844;BME280;1937;51.444;6.484;2023-04-02T00:17:59;68373.94;;;6.45;100.00
3844;BME280;1937;51.444;6.484;2023-04-02T00:20:27;68356.03;;;6.45;100.00
3844;BME280;1937;51.444;6.484;2023-04-02T00:22:54;68407.19;;;6.51;100.00
3844;BME280;1937;51.444;6.484;2023-04-02T00:25:25;68482.81;;;6.70;100.00
3844;BME280;1937;51.444;6.484;2023-04-02T00:27:53;68384.78;;;6.52;100.00
3844;BME280;1937;51.444;6.484;2023-04-02T00:30:19;68384.97;;;6.50;100.00
3844;BME280;1937;51.444;6.484;2023-04-02T00:32:46;68382.41;;;6.50;100.00
3844;BME280;1937;51.444;6.484;2023-04-02T00:35:18;68386.56;;;6.53;100.00
3844;BME280;1937;51.444;6.484;2023-04-02T00:37:46;68336.94;;;6.44;100.00
3844;BME280;1937;51.444;6.484;2023-04-02T00:40:17;68310.19;;;6.49;100.00
3844;BME280;1937;51.444;6.484;2023-04-02T00:42:47;68295.06;;;6.34;100.00
3844;BME280;1937;51.444;6.484;2023-04-02T00:45:21;68298.00;;;6.17;100.00
3844;BME280;1937;51.444;6.484;2023-04-02T00:47:48;68297.59;;;6.21;100.00
3844;BME280;1937;51.444;6.484;2023-04-02T00:50:21;68319.44;;;6.20;100.00
3844;BME280;1937;51.444;6.484;2023-04-02T00:52:51;68319.06;;;6.24;100.00
3844;BME280;1937;51.444;6.484;2023-04-02T00:55:21;68302.31;;;6.18;100.00
3844;BME280;1937;51.444;6.484;2023-04-02T00:57:51;68297.00;;;6.14;100.00
3844;BME280;1937;51.444;6.484;2023-04-02T01:00:21;68306.63;;;6.13;100.00
3844;BME280;1937;51.444;6.484;2023-04-02T01:03:22;68310.56;;;6.19;100.00
3844;BME280;1937;51.444;6.484;2023-04-02T01:05:56;68238.81;;;6.14;100.00
3844;BME280;1937;51.444;6.484;2023-04-02T01:08:33;68296.63;;;6.18;100.00
3844;BME280;1937;51.444;6.484;2023-04-02T01:11:12;68287.97;;;6.15;100.00
3844;BME280;1937;51.444;6.484;2023-04-02T01:13:52;68281.88;;;6.25;100.00
3844;BME280;1937;51.444;6.484;2023-04-02T01:16:30;68267.91;;;6.37;100.00
3844;BME280;1937;51.444;6.484;2023-04-02T01:19:15;68334.59;;;6.48;100.00
3844;BME280;1937;51.444;6.484;2023-04-02T01:21:53;68248.03;;;6.31;100.00
3844;BME280;1937;51.444;6.484;2023-04-02T01:24:27;68258.28;;;6.31;100.00
3844;BME280;1937;51.444;6.484;2023-04-02T01:26:56;68236.06;;;6.30;100.00
3844;BME280;1937;51.444;6.484;2023-04-02T01:29:27;68195.56;;;6.12;100.00
3844;BME280;1937;51.444;6.484;2023-04-02T01:31:57;68244.72;;;6.20;100.00
3844;BME280;1937;51.444;6.484;2023-04-02T01:34:26;68248.06;;;6.18;100.00
3844;BME280;1937;51.444;6.484;2023-04-02T01:37:05;68209.50;;;6.27;100.00
3844;BME280;1937;51.444;6.484;2023-04-02T01:39:47;68263.19;;;6.40;100.00
3844;BME280;1937;51.444;6.484;2023-04-02T01:42:20;68268.69;;;6.42;100.00
3844;BME280;1937;51.444;6.484;2023-04-02T01:44:50;68251.19;;;6.51;100.00
3844;BME280;1937;51.444;6.484;2023-04-02T01:47:20;68235.44;;;6.49;100.00
3844;BME280;1937;51.444;6.484;2023-04-02T01:49:47;68192.78;;;6.41;100.00
3844;BME280;1937;51.444;6.484;2023-04-02T01:52:16;68163.50;;;6.27;100.00
3844;BME280;1937;51.444;6.484;2023-04-02T01:54:45;68148.16;;;6.33;100.00
3844;BME280;1937;51.444;6.484;2023-04-02T01:57:13;68145.03;;;6.20;100.00
3844;BME280;1937;51.444;6.484;2023-04-02T01:59:39;68148.97;;;6.12;100.00
3844;BME280;1937;51.444;6.484;2023-04-02T02:02:10;68136.97;;;6.17;100.00
3844;BME280;1937;51.444;6.484;2023-04-02T02:04:38;68103.97;;;6.08;100.00
3844;BME280;1937;51.444;6.484;2023-04-02T02:07:05;68140.91;;;6.09;100.00
3844;BME280;1937;51.444;6.484;2023-04-02T02:09:39;68088.84;;;6.06;100.00
3844;BME280;1937;51.444;6.484;2023-04-02T02:12:06;68083.47;;;6.22;100.00
3844;BME280;1937;51.444;6.484;2023-04-02T02:14:32;68068.53;;;6.24;100.00
3844;BME280;1937;51.444;6.484;2023-04-02T02:17:00;68001.72;;;6.08;100.00
3844;BME280;1937;51.444;6.484;2023-04-02T02:19:34;67980.69;;;6.08;100.00
3844;BME280;1937;51.444;6.484;2023-04-02T02:22:08;67926.31;;;5.96;100.00
3844;BME280;1937;51.444;6.484;2023-04-02T02:24:36;67955.03;;;5.90;100.00
3844;BME280;1937;51.444;6.484;2023-04-02T02:27:15;67884.91;;;5.83;100.00
3844;BME280;1937;51.444;6.484;2023-04-02T02:29:57;67873.06;;;5.92;100.00
3844;BME280;1937;51.444;6.484;2023-04-02T02:32:28;67805.34;;;5.80;100.00
3844;BME280;1937;51.444;6.484;2023-04-02T02:35:00;67854.84;;;5.83;100.00
3844;BME280;1937;51.444;6.484;2023-04-02T02:37:31;67838.88;;;5.89;100.00
3844;BME280;1937;51.444;6.484;2023-04-02T02:40:02;67863.47;;;5.86;100.00
3844;BME280;1937;51.444;6.484;2023-04-02T02:42:33;67841.09;;;5.80;100.00
3844;BME280;1937;51.444;6.484;2023-04-02T02:45:04;67779.78;;;5.80;100.00
3844;BME280;1937;51.444;6.484;2023-04-02T02:47:36;67800.22;;;5.80;100.00
3844;BME280;1937;51.444;6.484;2023-04-02T02:50:11;67757.28;;;5.69;100.00
3844;BME280;1937;51.444;6.484;2023-04-02T02:52:44;67802.75;;;5.87;100.00
3844;BME280;1937;51.444;6.484;2023-04-02T02:55:13;67849.41;;;6.05;100.00
3844;BME280;1937;51.444;6.484;2023-04-02T02:57:45;67785.25;;;5.89;100.00
3844;BME280;1937;51.444;6.484;2023-04-02T03:00:14;67809.22;;;5.92;100.00
3844;BME280;1937;51.444;6.484;2023-04-02T03:02:44;67762.88;;;5.83;100.00
3844;BME280;1937;51.444;6.484;2023-04-02T03:05:17;67740.34;;;5.72;100.00
3844;BME280;1937;51.444;6.484;2023-04-02T03:07:46;67744.28;;;5.71;100.00
3844;BME280;1937;51.444;6.484;2023-04-02T03:10:16;67684.28;;;5.59;100.00
3844;BME280;1937;51.444;6.484;2023-04-02T03:12:50;67755.91;;;5.70;100.00
3844;BME280;1937;51.444;6.484;2023-04-02T03:15:22;67704.28;;;5.63;100.00
3844;BME280;1937;51.444;6.484;2023-04-02T03:17:56;67678.16;;;5.63;100.00
3844;BME280;1937;51.444;6.484;2023-04-02T03:20:30;67710.38;;;5.60;100.00
3844;BME280;1937;51.444;6.484;2023-04-02T03:23:04;67741.28;;;5.82;100.00
3844;BME280;1937;51.444;6.484;2023-04-02T03:25:37;67721.88;;;5.72;100.00
3844;BME280;1937;51.444;6.484;2023-04-02T03:28:10;67678.47;;;5.72;100.00
3844;BME280;1937;51.444;6.484;2023-04-02T03:30:42;67698.66;;;5.81;100.00
3844;BME280;1937;51.444;6.484;2023-04-02T03:33:14;67700.06;;;5.73;100.00
3844;BME280;1937;51.444;6.484;2023-04-02T03:35:46;67698.00;;;5.62;100.00
3844;BME280;1937;51.444;6.484;2023-04-02T03:38:21;67700.13;;;5.66;100.00
3844;BME280;1937;51.444;6.484;2023-04-02T03:40:58;67707.03;;;5.61;100.00
3844;BME280;1937;51.444;6.484;2023-04-02T03:43:30;67687.41;;;5.60;100.00
3844;BME280;1937;51.444;6.484;2023-04-02T03:46:08;67688.91;;;5.46;100.00
3844;BME280;1937;51.444;6.484;2023-04-02T03:48:42;67672.22;;;5.47;100.00
3844;BME280;1937;51.444;6.484;2023-04-02T03:51:14;67660.53;;;5.54;100.00
3844;BME280;1937;51.444;6.484;2023-04-02T03:53:43;67693.47;;;5.63;100.00
3844;BME280;1937;51.444;6.484;2023-04-02T03:56:21;67688.97;;;5.63;100.00
3844;BME280;1937;51.444;6.484;2023-04-02T03:58:54;67699.75;;;5.64;100.00
3844;BME280;1937;51.444;6.484;2023-04-02T04:01:31;67641.03;;;5.40;100.00
3844;BME280;1937;51.444;6.484;2023-04-02T04:04:02;67661.63;;;5.44;100.00
3844;BME280;1937;51.444;6.484;2023-04-02T04:06:33;67653.16;;;5.46;100.00
3844;BME280;1937;51.444;6.484;2023-04-02T04:09:06;67640.66;;;5.37;100.00
3844;BME280;1937;51.444;6.484;2023-04-02T04:11:36;67650.16;;;5.25;100.00
3844;BME280;1937;51.444;6.484;2023-04-02T04:14:08;67637.31;;;5.14;100.00
3844;BME280;1937;51.444;6.484;2023-04-02T04:16:41;67575.44;;;4.96;100.00
3844;BME280;1937;51.444;6.484;2023-04-02T04:19:16;67674.63;;;5.11;100.00
3844;BME280;1937;51.444;6.484;2023-04-02T04:21:47;67684.78;;;5.18;100.00
3844;BME280;1937;51.444;6.484;2023-04-02T04:24:17;67675.56;;;5.14;100.00
3844;BME280;1937;51.444;6.484;2023-04-02T04:26:50;67648.44;;;5.24;100.00
3844;BME280;1937;51.444;6.484;2023-04-02T04:29:30;67668.94;;;5.11;100.00
3844;BME280;1937;51.444;6.484;2023-04-02T04:32:14;67627.09;;;5.14;100.00
3844;BME280;1937;51.444;6.484;2023-04-02T04:34:44;67639.72;;;5.03;100.00
3844;BME280;1937;51.444;6.484;2023-04-02T04:37:23;67623.09;;;4.98;100.00
3844;BME280;1937;51.444;6.484;2023-04-02T04:39:54;67527.16;;;4.76;100.00
3844;BME280;1937;51.444;6.484;2023-04-02T04:42:25;67557.94;;;4.74;100.00
3844;BME280;1937;51.444;6.484;2023-04-02T04:44:54;67552.84;;;4.74;100.00
3844;BME280;1937;51.444;6.484;2023-04-02T04:47:27;67552.09;;;4.69;100.00
3844;BME280;1937;51.444;6.484;2023-04-02T04:49:57;67580.22;;;4.87;100.00
3844;BME280;1937;51.444;6.484;2023-04-02T04:52:31;67537.72;;;4.79;100.00
3844;BME280;1937;51.444;6.484;2023-04-02T04:54:59;67584.09;;;4.92;100.00
3844;BME280;1937;51.444;6.484;2023-04-02T04:57:30;67504.09;;;4.65;100.00
3844;BME280;1937;51.444;6.484;2023-04-02T05:00:01;67518.22;;;4.64;100.00
3844;BME280;1937;51.444;6.484;2023-04-02T05:02:34;67567.47;;;4.87;100.00
3844;BME280;1937;51.444;6.484;2023-04-02T05:05:15;67497.56;;;4.73;100.00
3844;BME280;1937;51.444;6.484;2023-04-02T05:07:48;67527.56;;;4.72;100.00
3844;BME280;1937;51.444;6.484;2023-04-02T05:10:19;67456.31;;;4.59;100.00
3844;BME280;1937;51.444;6.484;2023-04-02T05:12:52;67465.53;;;4.56;100.00
3844;BME280;1937;51.444;6.484;2023-04-02T05:15:24;67458.63;;;4.61;100.00
3844;BME280;1937;51.444;6.484;2023-04-02T05:17:59;67473.81;;;4.50;100.00
3844;BME280;1937;51.444;6.484;2023-04-02T05:20:29;67508.63;;;4.65;100.00
3844;BME280;1937;51.444;6.484;2023-04-02T05:23:02;67447.34;;;4.53;100.00
3844;BME280;1937;51.444;6.484;2023-04-02T05:25:31;67494.53;;;4.59;100.00
3844;BME280;1937;51.444;6.484;2023-04-02T05:28:02;67524.44;;;4.72;100.00
3844;BME280;1937;51.444;6.484;2023-04-02T05:30:39;67516.41;;;4.69;100.00
3844;BME280;1937;51.444;6.484;2023-04-02T05:33:17;67466.03;;;4.45;100.00
3844;BME280;1937;51.444;6.484;2023-04-02T05:35:47;67431.88;;;4.49;100.00
3844;BME280;1937;51.444;6.484;2023-04-02T05:38:19;67448.63;;;4.41;100.00
3844;BME280;1937;51.444;6.484;2023-04-02T05:40:49;67413.88;;;4.44;100.00
3844;BME280;1937;51.444;6.484;2023-04-02T05:43:19;67431.03;;;4.57;100.00
3844;BME280;1937;51.444;6.484;2023-04-02T05:45:52;67417.31;;;4.54;100.00
3844;BME280;1937;51.444;6.484;2023-04-02T05:48:24;67407.94;;;4.52;100.00
3844;BME280;1937;51.444;6.484;2023-04-02T05:50:54;67420.75;;;4.46;100.00
3844;BME280;1937;51.444;6.484;2023-04-02T05:53:27;67415.41;;;4.48;100.00
3844;BME280;1937;51.444;6.484;2023-04-02T05:56:00;67324.31;;;4.24;100.00
3844;BME280;1937;51.444;6.484;2023-04-02T05:58:33;67375.78;;;4.31;100.00
3844;BME280;1937;51.444;6.484;2023-04-02T06:01:15;67341.34;;;4.26;100.00
3844;BME280;1937;51.444;6.484;2023-04-02T06:03:49;67350.38;;;4.25;100.00
3844;BME280;1937;51.444;6.484;2023-04-02T06:06:24;67359.94;;;4.48;100.00
3844;BME280;1937;51.444;6.484;2023-04-02T06:08:57;67352.00;;;4.39;100.00
3844;BME280;1937;51.444;6.484;2023-04-02T06:11:28;67332.72;;;4.29;100.00
3844;BME280;1937;51.444;6.484;2023-04-02T06:13:56;67345.44;;;4.29;100.00
3844;BME280;1937;51.444;6.484;2023-04-02T06:16:26;67341.78;;;4.22;100.00
3844;BME280;1937;51.444;6.484;2023-04-02T06:18:53;67345.72;;;4.21;100.00
3844;BME280;1937;51.444;6.484;2023-04-02T06:21:20;67341.16;;;4.45;99.75
3844;BME280;1937;51.444;6.484;2023-04-02T06:23:52;67323.31;;;4.28;99.31
3844;BME280;1937;51.444;6.484;2023-04-02T06:26:24;67318.72;;;4.35;99.35
3844;BME280;1937;51.444;6.484;2023-04-02T06:28:56;67324.63;;;4.33;99.15
3844;BME280;1937;51.444;6.484;2023-04-02T06:31:29;67269.22;;;4.27;97.96
3844;BME280;1937;51.444;6.484;2023-04-02T06:34:00;67256.88;;;4.12;97.92
3844;BME280;1937;51.444;6.484;2023-04-02T06:36:28;67243.19;;;4.09;98.42
3844;BME280;1937;51.444;6.484;2023-04-02T06:38:58;67248.28;;;4.09;98.33
3844;BME280;1937;51.444;6.484;2023-04-02T06:41:28;67295.22;;;4.34;97.69
3844;BME280;1937;51.444;6.484;2023-04-02T06:43:58;67255.19;;;4.22;97.86
3844;BME280;1937;51.444;6.484;2023-04-02T06:46:31;67261.72;;;4.14;97.65
3844;BME280;1937;51.444;6.484;2023-04-02T06:49:06;67265.38;;;4.22;98.07
3844;BME280;1937;51.444;6.484;2023-04-02T06:51:39;67203.66;;;4.03;97.29
3844;BME280;1937;51.444;6.484;2023-04-02T06:54:12;67252.44;;;4.06;97.78
3844;BME280;1937;51.444;6.484;2023-04-02T06:56:42;67211.31;;;4.03;97.48
3844;BME280;1937;51.444;6.484;2023-04-02T06:59:10;67189.06;;;3.97;97.53
3844;BME280;1937;51.444;6.484;2023-04-02T07:01:40;67245.78;;;4.20;97.41
3844;BME280;1937;51.444;6.484;2023-04-02T07:04:09;67223.59;;;4.07;97.19
3844;BME280;1937;51.444;6.484;2023-04-02T07:06:35;67294.25;;;4.49;96.30
3844;BME280;1937;51.444;6.484;2023-04-02T07:09:03;67230.41;;;4.44;95.44
3844;BME280;1937;51.444;6.484;2023-04-02T07:11:29;67318.22;;;4.45;95.10
3844;BME280;1937;51.444;6.484;2023-04-02T07:13:57;67233.63;;;4.38;95.49
3844;BME280;1937;51.444;6.484;2023-04-02T07:16:25;67200.59;;;4.32;95.23
3844;BME280;1937;51.444;6.484;2023-04-02T07:18:53;67178.97;;;4.20;95.83
3844;BME280;1937;51.444;6.484;2023-04-02T07:21:23;67234.94;;;4.26;95.80
3844;BME280;1937;51.444;6.484;2023-04-02T07:23:49;67196.44;;;4.35;95.36
3844;BME280;1937;51.444;6.484;2023-04-02T07:26:19;67228.59;;;4.49;94.37
3844;BME280;1937;51.444;6.484;2023-04-02T07:28:46;67206.16;;;4.57;95.04
3844;BME280;1937;51.444;6.484;2023-04-02T07:31:16;67187.56;;;4.40;94.21
3844;BME280;1937;51.444;6.484;2023-04-02T07:33:44;67193.06;;;4.36;94.04
3844;BME280;1937;51.444;6.484;2023-04-02T07:36:15;67199.13;;;4.39;93.77
3844;BME280;1937;51.444;6.484;2023-04-02T07:38:42;67145.75;;;4.15;93.56
3844;BME280;1937;51.444;6.484;2023-04-02T07:41:10;67181.78;;;4.00;93.87
3844;BME280;1937;51.444;6.484;2023-04-02T07:43:37;67181.16;;;4.35;95.00
3844;BME280;1937;51.444;6.484;2023-04-02T07:46:04;67172.56;;;4.32;93.73
3844;BME280;1937;51.444;6.484;2023-04-02T07:48:32;67123.28;;;4.11;93.61
3844;BME280;1937;51.444;6.484;2023-04-02T07:50:59;67133.41;;;4.29;93.52
3844;BME280;1937;51.444;6.484;2023-04-02T07:53:29;67185.19;;;3.92;93.51
3844;BME280;1937;51.444;6.484;2023-04-02T07:55:57;67105.00;;;4.15;93.75
3844;BME280;1937;51.444;6.484;2023-04-02T07:58:23;67111.47;;;4.14;94.31
3844;BME280;1937;51.444;6.484;2023-04-02T08:00:50;67140.47;;;4.28;94.88
3844;BME280;1937;51.444;6.484;2023-04-02T08:03:17;67106.03;;;4.11;93.57
3844;BME280;1937;51.444;6.484;2023-04-02T08:05:50;67183.06;;;4.23;93.82
3844;BME280;1937;51.444;6.484;2023-04-02T08:08:17;67151.59;;;4.31;92.96
3844;BME280;1937;51.444;6.484;2023-04-02T08:10:44;67189.63;;;4.16;93.66
3844;BME280;1937;51.444;6.484;2023-04-02T08:13:12;67111.25;;;4.16;93.09
3844;BME280;1937;51.444;6.484;2023-04-02T08:15:39;67114.91;;;4.06;93.07
3844;BME280;1937;51.444;6.484;2023-04-02T08:18:06;67111.41;;;4.03;93.56
3844;BME280;1937;51.444;6.484;2023-04-02T08:20:33;67080.69;;;4.16;93.80
3844;BME280;1937;51.444;6.484;2023-04-02T08:23:02;67190.50;;;4.54;93.06
3844;BME280;1937;51.444;6.484;2023-04-02T08:25:29;67136.69;;;4.34;92.81
3844;BME280;1937;51.444;6.484;2023-04-02T08:27:55;67158.63;;;4.48;92.74
3844;BME280;1937;51.444;6.484;2023-04-02T08:30:22;67161.31;;;4.53;91.36
3844;BME280;1937;51.444;6.484;2023-04-02T08:32:49;67076.06;;;4.52;92.26
3844;BME280;1937;51.444;6.484;2023-04-02T08:35:16;67104.50;;;4.37;91.56
3844;BME280;1937;51.444;6.484;2023-04-02T08:37:44;67176.78;;;4.69;91.49
3844;BME280;1937;51.444;6.484;2023-04-02T08:40:20;67099.31;;;4.43;91.70
3844;BME280;1937;51.444;6.484;2023-04-02T08:42:56;67162.13;;;4.80;91.04
3844;BME280;1937;51.444;6.484;2023-04-02T08:45:35;67177.25;;;4.65;90.41
3844;BME280;1937;51.444;6.484;2023-04-02T08:48:06;67187.53;;;4.87;90.64
3844;BME280;1937;51.444;6.484;2023-04-02T08:50:37;67133.97;;;4.87;90.61
3844;BME280;1937;51.444;6.484;2023-04-02T08:53:06;67186.16;;;4.99;90.14
3844;BME280;1937;51.444;6.484;2023-04-02T08:55:41;67207.41;;;5.09;89.39
3844;BME280;1937;51.444;6.484;2023-04-02T08:58:19;67140.00;;;4.90;89.14
3844;BME280;1937;51.444;6.484;2023-04-02T09:00:55;67188.84;;;5.04;89.36
3844;BME280;1937;51.444;6.484;2023-04-02T09:03:27;67109.16;;;4.81;89.75
3844;BME280;1937;51.444;6.484;2023-04-02T09:05:56;67185.47;;;4.94;89.72
3844;BME280;1937;51.444;6.484;2023-04-02T09:08:26;67244.25;;;5.27;89.79
3844;BME280;1937;51.444;6.484;2023-04-02T09:11:01;67194.63;;;5.38;88.00
3844;BME280;1937;51.444;6.484;2023-04-02T09:13:34;67215.03;;;5.38;87.45
3844;BME280;1937;51.444;6.484;2023-04-02T09:16:07;67160.94;;;5.19;88.27
3844;BME280;1937;51.444;6.484;2023-04-02T09:18:35;67166.19;;;5.24;88.96
3844;BME280;1937;51.444;6.484;2023-04-02T09:21:21;67155.16;;;5.25;87.85
3844;BME280;1937;51.444;6.484;2023-04-02T09:23:53;67159.34;;;5.22;88.49
3844;BME280;1937;51.444;6.484;2023-04-02T09:26:23;67190.50;;;5.12;87.90
3844;BME280;1937;51.444;6.484;2023-04-02T09:28:53;67138.16;;;4.95;88.92
3844;BME280;1937;51.444;6.484;2023-04-02T09:31:25;67140.03;;;5.01;88.51
3844;BME280;1937;51.444;6.484;2023-04-02T09:33:56;67169.94;;;5.07;88.39
3844;BME280;1937;51.444;6.484;2023-04-02T09:36:32;67130.31;;;5.19;87.60
3844;BME280;1937;51.444;6.484;2023-04-02T09:39:03;67076.03;;;5.03;86.95
3844;BME280;1937;51.444;6.484;2023-04-02T09:41:36;67054.47;;;4.91;87.50
3844;BME280;1937;51.444;6.484;2023-04-02T09:44:18;67116.13;;;4.87;87.62
3844;BME280;1937;51.444;6.484;2023-04-02T09:46:50;67138.34;;;5.33;88.09
3844;BME280;1937;51.444;6.484;2023-04-02T09:49:25;67139.44;;;5.41;87.00
3844;BME280;1937;51.444;6.484;2023-04-02T09:52:07;67158.47;;;5.53;85.46
3844;BME280;1937;51.444;6.484;2023-04-02T09:54:40;67153.69;;;5.55;85.66
3844;BME280;1937;51.444;6.484;2023-04-02T09:57:18;67084.66;;;5.28;85.66
3844;BME280;1937;51.444;6.484;2023-04-02T10:00:07;67148.06;;;5.15;85.26
3844;BME280;1937;51.444;6.484;2023-04-02T10:02:35;67141.97;;;5.41;85.49
3844;BME280;1937;51.444;6.484;2023-04-02T10:05:04;67134.28;;;5.18;84.25
3844;BME280;1937;51.444;6.484;2023-04-02T10:07:36;67215.22;;;5.24;85.06
3844;BME280;1937;51.444;6.484;2023-04-02T10:10:19;67078.97;;;5.28;84.58
3844;BME280;1937;51.444;6.484;2023-04-02T10:12:51;67123.06;;;5.33;84.24
3844;BME280;1937;51.444;6.484;2023-04-02T10:15:26;67092.09;;;5.53;84.64
3844;BME280;1937;51.444;6.484;2023-04-02T10:18:02;67104.34;;;5.12;84.75
3844;BME280;1937;51.444;6.484;2023-04-02T10:20:33;67079.91;;;5.31;84.37
3844;BME280;1937;51.444;6.484;2023-04-02T10:23:01;67126.31;;;5.38;84.64
3844;BME280;1937;51.444;6.484;2023-04-02T10:25:33;67147.56;;;5.59;84.30
3844;BME280;1937;51.444;6.484;2023-04-02T10:28:11;67155.22;;;5.59;84.27
3844;BME280;1937;51.444;6.484;2023-04-02T10:30:52;67193.44;;;5.76;83.30
3844;BME280;1937;51.444;6.484;2023-04-02T10:33:25;67048.34;;;5.39;83.88
3844;BME280;1937;51.444;6.484;2023-04-02T10:35:59;67028.41;;;5.13;85.00
3844;BME280;1937;51.444;6.484;2023-04-02T10:38:42;67159.22;;;5.91;84.21
3844;BME280;1937;51.444;6.484;2023-04-02T10:41:21;67057.16;;;5.62;83.63
3844;BME280;1937;51.444;6.484;2023-04-02T10:44:11;67136.00;;;5.93;83.88
3844;BME280;1937;51.444;6.484;2023-04-02T10:46:50;67168.66;;;5.42;84.09
3844;BME280;1937;51.444;6.484;2023-04-02T10:49:28;67135.84;;;5.66;83.38
3844;BME280;1937;51.444;6.484;2023-04-02T10:51:59;67182.88;;;5.74;83.11
3844;BME280;1937;51.444;6.484;2023-04-02T10:54:36;67252.44;;;5.97;82.71
3844;BME280;1937;51.444;6.484;2023-04-02T10:57:10;67182.66;;;5.87;82.23
3844;BME280;1937;51.444;6.484;2023-04-02T10:59:43;67247.13;;;5.99;82.51
3844;BME280;1937;51.444;6.484;2023-04-02T11:02:27;67112.75;;;5.73;82.92
3844;BME280;1937;51.444;6.484;2023-04-02T11:04:57;67133.69;;;5.91;82.34
3844;BME280;1937;51.444;6.484;2023-04-02T11:07:27;67183.03;;;6.12;82.48
3844;BME280;1937;51.444;6.484;2023-04-02T11:09:56;67169.91;;;5.87;81.98
3844;BME280;1937;51.444;6.484;2023-04-02T11:12:28;67053.44;;;5.72;81.77
3844;BME280;1937;51.444;6.484;2023-04-02T11:14:59;67127.38;;;5.79;82.68
3844;BME280;1937;51.444;6.484;2023-04-02T11:17:26;67192.66;;;5.89;82.45
3844;BME280;1937;51.444;6.484;2023-04-02T11:20:41;67178.97;;;6.31;82.24
3844;BME280;1937;51.444;6.484;2023-04-02T11:23:09;67138.91;;;6.07;81.03
3844;BME280;1937;51.444;6.484;2023-04-02T11:25:37;67168.28;;;6.12;82.22
3844;BME280;1937;51.444;6.484;2023-04-02T11:28:13;67184.91;;;6.18;82.34
3844;BME280;1937;51.444;6.484;2023-04-02T11:30:42;67201.50;;;6.35;81.26
3844;BME280;1937;51.444;6.484;2023-04-02T11:33:37;67176.97;;;6.31;81.42
3844;BME280;1937;51.444;6.484;2023-04-02T11:39:08;67115.78;;;6.13;80.75
3844;BME280;1937;51.444;6.484;2023-04-02T11:42:01;67227.06;;;6.68;80.46
3844;BME280;1937;51.444;6.484;2023-04-02T11:44:28;67187.69;;;6.38;78.33
3844;BME280;1937;51.444;6.484;2023-04-02T11:47:16;67144.56;;;6.18;80.16
3844;BME280;1937;51.444;6.484;2023-04-02T11:50:03;67150.41;;;6.35;79.13
3844;BME280;1937;51.444;6.484;2023-04-02T11:52:33;67125.78;;;6.04;79.56
3844;BME280;1937;51.444;6.484;2023-04-02T11:55:05;67094.66;;;5.97;79.51
3844;BME280;1937;51.444;6.484;2023-04-02T11:58:17;67094.28;;;5.84;79.25
3844;BME280;1937;51.444;6.484;2023-04-02T12:04:22;67096.97;;;6.22;79.72
3844;BME280;1937;51.444;6.484;2023-04-02T12:07:08;67086.94;;;6.31;80.29
3844;BME280;1937;51.444;6.484;2023-04-02T12:09:45;67085.59;;;6.21;77.81
3844;BME280;1937;51.444;6.484;2023-04-02T12:12:16;67186.97;;;6.44;79.27
3844;BME280;1937;51.444;6.484;2023-04-02T12:14:45;67162.31;;;6.70;79.41
3844;BME280;1937;51.444;6.484;2023-04-02T12:17:20;67119.72;;;6.46;78.28
3844;BME280;1937;51.444;6.484;2023-04-02T12:19:53;67053.06;;;6.14;78.08
3844;BME280;1937;51.444;6.484;2023-04-02T12:22:22;67069.81;;;6.02;78.38
3844;BME280;1937;51.444;6.484;2023-04-02T12:24:52;67149.47;;;6.09;78.97
3844;BME280;1937;51.444;6.484;2023-04-02T12:27:23;67052.34;;;6.32;77.68
3844;BME280;1937;51.444;6.484;2023-04-02T12:29:52;67159.09;;;6.31;77.42
3844;BME280;1937;51.444;6.484;2023-04-02T12:32:23;67139.44;;;6.52;77.36
3844;BME280;1937;51.444;6.484;2023-04-02T12:34:53;67055.47;;;6.32;77.85
3844;BME280;1937;51.444;6.484;2023-04-02T12:37:23;67136.34;;;6.29;78.94
3844;BME280;1937;51.444;6.484;2023-04-02T12:39:53;67129.91;;;6.57;78.08
3844;BME280;1937;51.444;6.484;2023-04-02T12:42:27;67189.66;;;6.71;76.88
3844;BME280;1937;51.444;6.484;2023-04-02T12:44:54;67194.63;;;6.67;76.89
3844;BME280;1937;51.444;6.484;2023-04-02T12:47:21;67130.38;;;6.53;77.21
3844;BME280;1937;51.444;6.484;2023-04-02T12:49:48;67089.03;;;6.46;77.52
3844;BME280;1937;51.444;6.484;2023-04-02T12:52:19;67178.47;;;6.68;76.26
3844;BME280;1937;51.444;6.484;2023-04-02T12:54:48;67157.56;;;6.61;75.67
3844;BME280;1937;51.444;6.484;2023-04-02T12:57:33;67075.34;;;6.32;76.84
3844;BME280;1937;51.444;6.484;2023-04-02T13:00:02;67043.78;;;6.18;75.80
3844;BME280;1937;51.444;6.484;2023-04-02T13:02:32;67058.88;;;6.08;76.73
3844;BME280;1937;51.444;6.484;2023-04-02T13:05:08;67048.34;;;6.06;76.45
3844;BME280;1937;51.444;6.484;2023-04-02T13:07:37;67011.41;;;6.05;76.24
3844;BME280;1937;51.444;6.484;2023-04-02T13:10:21;67108.34;;;6.23;77.02
3844;BME280;1937;51.444;6.484;2023-04-02T13:12:55;67064.69;;;6.13;76.84
3844;BME280;1937;51.444;6.484;2023-04-02T13:15:25;67070.47;;;6.30;76.39
3844;BME280;1937;51.444;6.484;2023-04-02T13:18:04;67060.47;;;6.39;74.86
3844;BME280;1937;51.444;6.484;2023-04-02T13:20:33;67148.56;;;6.78;76.12
3844;BME280;1937;51.444;6.484;2023-04-02T13:23:21;67156.41;;;6.60;74.74
3844;BME280;1937;51.444;6.484;2023-04-02T13:25:52;67087.56;;;6.69;74.69
3844;BME280;1937;51.444;6.484;2023-04-02T13:28:19;67126.44;;;6.43;73.39
3844;BME280;1937;51.444;6.484;2023-04-02T13:30:46;67009.19;;;6.45;75.36
3844;BME280;1937;51.444;6.484;2023-04-02T13:33:13;67082.25;;;6.60;75.73
3844;BME280;1937;51.444;6.484;2023-04-02T13:35:40;67081.34;;;6.57;75.75
3844;BME280;1937;51.444;6.484;2023-04-02T13:38:08;67050.47;;;6.37;74.17
3844;BME280;1937;51.444;6.484;2023-04-02T13:40:35;67104.09;;;6.70;74.67
3844;BME280;1937;51.444;6.484;2023-04-02T13:43:03;67109.94;;;6.91;74.46
3844;BME280;1937;51.444;6.484;2023-04-02T13:45:31;67131.69;;;6.96;72.90
3844;BME280;1937;51.444;6.484;2023-04-02T13:47:59;67236.78;;;7.17;74.24
3844;BME280;1937;51.444;6.484;2023-04-02T13:50:28;67245.88;;;7.76;71.83
3844;BME280;1937;51.444;6.484;2023-04-02T13:52:56;67237.97;;;8.05;71.61
3844;BME280;1937;51.444;6.484;2023-04-02T13:55:27;67258.88;;;8.23;68.26
3844;BME280;1937;51.444;6.484;2023-04-02T13:57:55;67282.28;;;8.26;69.82
3844;BME280;1937;51.444;6.484;2023-04-02T14:00:22;67216.53;;;8.02;68.05
3844;BME280;1937;51.444;6.484;2023-04-02T14:02:54;67303.06;;;8.50;67.98
3844;BME280;1937;51.444;6.484;2023-04-02T14:05:30;67271.63;;;8.45;70.85